Time;durP1;ratioP1;P1;durP2;ratioP2;P2;SDS_P1;SDS_P2;PMS_P1;PMS_P2;Temp;Humidity;BMP_temperature;BMP_pressure;BME280_temperature;BME280_humidity;BME280_pressure;Samples;Min_cycle;Max_cycle;Signal;HPM_P1;HPM_P2
2021/09/26 00:01:32;;;;;;;13.07;10.93;;;;;;;17.23;72.56;98861.47;2617503;54;20015;-69
2021/09/26 00:04:05;;;;;;;14.32;10.65;;;;;;;17.32;72.17;98861.91;2618195;54;20027;-69
2021/09/26 00:06:35;;;;;;;12.15;10.77;;;;;;;17.35;72.02;98858.78;2618269;54;20026;-69
2021/09/26 00:09:05;;;;;;;13.20;10.30;;;;;;;17.22;72.39;98867.81;2618950;39;20520;-68
2021/09/26 00:11:35;;;;;;;12.40;9.85;;;;;;;17.19;72.44;98870.19;2619292;39;20411;-68
2021/09/26 00:14:05;;;;;;;13.40;10.43;;;;;;;17.19;72.89;98857.63;2618678;54;20046;-68
2021/09/26 00:16:35;;;;;;;12.20;10.10;;;;;;;17.22;72.73;98857.13;2618658;31;20498;-68
2021/09/26 00:19:07;;;;;;;14.18;10.60;;;;;;;17.24;72.42;98843.56;2618411;54;20569;-69
2021/09/26 00:21:37;;;;;;;15.07;11.43;;;;;;;17.26;72.58;98842.28;2617699;54;20037;-68
2021/09/26 00:24:07;;;;;;;15.52;11.20;;;;;;;17.25;72.24;98835.31;2617572;54;20045;-69
2021/09/26 00:26:37;;;;;;;12.57;10.77;;;;;;;17.19;72.48;98828.25;2617608;54;20034;-69
2021/09/26 00:29:06;;;;;;;12.27;9.85;;;;;;;17.17;72.97;98834.84;2617448;47;20042;-68
2021/09/26 00:31:36;;;;;;;11.75;10.43;;;;;;;17.22;72.26;98833.09;2616937;54;20137;-64
2021/09/26 00:34:09;;;;;;;12.77;10.02;;;;;;;17.20;72.79;98835.22;2619113;47;20026;-64
2021/09/26 00:36:39;;;;;;;13.27;11.05;;;;;;;17.25;72.58;98837.16;2618922;54;20039;-64
2021/09/26 00:39:09;;;;;;;15.23;9.85;;;;;;;17.25;72.68;98837.16;2619056;54;20023;-63
2021/09/26 00:41:39;;;;;;;12.05;10.30;;;;;;;17.24;72.50;98838.22;2619644;54;20053;-64
2021/09/26 00:44:09;;;;;;;12.32;9.10;;;;;;;17.21;72.32;98839.50;2619285;54;20042;-64
2021/09/26 00:46:39;;;;;;;12.40;10.63;;;;;;;17.24;72.60;98836.38;2618863;54;20033;-64
2021/09/26 00:49:11;;;;;;;13.63;10.20;;;;;;;17.20;72.29;98840.56;2619467;54;20073;-64
2021/09/26 00:51:41;;;;;;;15.15;10.95;;;;;;;17.21;72.62;98834.16;2619555;47;20038;-64
2021/09/26 00:54:11;;;;;;;11.95;10.73;;;;;;;17.11;72.76;98838.47;2619009;54;20026;-63
2021/09/26 00:56:41;;;;;;;11.48;10.35;;;;;;;17.06;72.62;98844.50;2619052;54;20042;-63
2021/09/26 00:59:10;;;;;;;10.93;9.50;;;;;;;16.97;73.29;98846.72;2618468;51;20023;-63
2021/09/26 01:01:40;;;;;;;12.50;10.63;;;;;;;16.97;73.00;98845.91;2618186;54;20062;-64
2021/09/26 01:04:13;;;;;;;11.65;10.07;;;;;;;16.96;73.06;98847.75;2618044;47;20029;-63
2021/09/26 01:06:50;;;;;;;15.82;10.52;;;;;;;16.94;73.50;98849.88;2618151;47;20050;-64
2021/09/26 01:09:27;;;;;;;13.20;10.93;;;;;;;16.93;73.66;98850.91;2618095;54;20576;-64
2021/09/26 01:12:02;;;;;;;14.40;11.50;;;;;;;16.94;73.20;98841.03;2621047;47;20026;-64
2021/09/26 01:14:41;;;;;;;14.77;11.40;;;;;;;16.89;73.12;98840.91;2620400;54;20042;-65
2021/09/26 01:17:17;;;;;;;16.60;10.35;;;;;;;16.78;73.67;98839.88;2618703;54;20031;-64
2021/09/26 01:20:28;;;;;;;16.58;11.90;;;;;;;16.81;73.80;98842.06;2618948;54;20030;-64
2021/09/26 01:23:20;;;;;;;15.20;10.68;;;;;;;16.74;73.44;98849.41;2618747;54;20082;-63
2021/09/26 01:26:08;;;;;;;14.77;10.70;;;;;;;16.73;73.63;98851.22;2618455;54;20030;-65
2021/09/26 01:28:54;;;;;;;16.48;12.88;;;;;;;16.72;74.06;98852.25;2618994;47;20038;-64
2021/09/26 01:31:30;;;;;;;12.10;10.25;;;;;;;16.68;73.93;98852.94;2619379;54;20061;-64
2021/09/26 01:34:05;;;;;;;11.55;10.07;;;;;;;16.66;74.07;98863.88;2619042;54;20026;-63
2021/09/26 01:36:44;;;;;;;10.20;9.07;;;;;;;16.70;73.72;98856.22;2619158;54;20038;-64
2021/09/26 01:39:20;;;;;;;12.77;9.73;;;;;;;16.71;73.27;98858.63;2619338;39;20478;-64
2021/09/26 01:41:55;;;;;;;13.38;9.93;;;;;;;16.59;74.00;98860.47;2618559;54;20564;-64
2021/09/26 01:44:31;;;;;;;12.05;9.50;;;;;;;16.55;73.99;98853.97;2618131;54;20065;-65
2021/09/26 01:47:06;;;;;;;11.07;9.57;;;;;;;16.50;74.15;98854.66;2618019;54;20033;-64
2021/09/26 01:49:41;;;;;;;13.45;9.60;;;;;;;16.55;74.05;98852.13;2617596;47;20546;-65
2021/09/26 01:52:17;;;;;;;15.10;9.15;;;;;;;16.50;74.62;98852.00;2618535;54;20034;-63
2021/09/26 01:54:48;;;;;;;12.48;9.38;;;;;;;16.47;74.86;98849.78;2618840;54;20037;-64
2021/09/26 01:57:20;;;;;;;11.20;9.73;;;;;;;16.45;74.47;98845.72;2618636;54;20557;-64
2021/09/26 01:59:51;;;;;;;13.40;10.05;;;;;;;16.38;74.68;98851.16;2618803;54;20039;-64
2021/09/26 02:02:28;;;;;;;10.75;9.30;;;;;;;16.33;74.93;98853.72;2619519;31;20490;-64
2021/09/26 02:05:02;;;;;;;10.43;9.32;;;;;;;16.33;74.20;98857.19;2618080;54;20030;-63
2021/09/26 02:07:34;;;;;;;;;;;;;;;16.28;74.61;98851.72;2618479;54;20035;-64
2021/09/26 02:10:05;;;;;;;11.98;10.32;;;;;;;16.22;74.65;98859.81;2617793;54;19946;-63
2021/09/26 02:12:36;;;;;;;11.43;9.25;;;;;;;16.18;74.94;98850.66;2617712;54;20026;-64
2021/09/26 02:15:09;;;;;;;11.38;8.88;;;;;;;16.23;74.71;98848.09;2618407;39;20457;-64
2021/09/26 02:17:44;;;;;;;11.23;10.02;;;;;;;16.28;74.91;98859.72;2618335;54;20110;-63
2021/09/26 02:20:16;;;;;;;13.35;8.90;;;;;;;16.18;74.56;98862.13;2618066;54;20030;-64
2021/09/26 02:22:47;;;;;;;11.18;8.77;;;;;;;16.18;75.04;98858.66;2618273;54;20034;-64
2021/09/26 02:25:19;;;;;;;14.55;9.35;;;;;;;16.16;75.08;98858.84;2617956;54;20023;-64
2021/09/26 02:27:49;;;;;;;10.07;9.07;;;;;;;16.12;74.79;98851.53;2618740;39;20411;-65
2021/09/26 02:30:19;;;;;;;9.57;8.38;;;;;;;16.07;74.98;98857.56;2618280;39;20433;-64
2021/09/26 02:32:52;;;;;;;11.00;8.73;;;;;;;16.06;75.18;98854.09;2617845;54;20034;-64
2021/09/26 02:35:22;;;;;;;12.68;9.55;;;;;;;16.07;75.37;98858.38;2618316;39;20425;-64
2021/09/26 02:37:52;;;;;;;11.55;9.70;;;;;;;16.05;74.97;98863.13;2617460;54;20050;-64
2021/09/26 02:40:23;;;;;;;12.10;9.18;;;;;;;16.05;75.21;98863.13;2618492;54;20049;-65
2021/09/26 02:43:11;;;;;;;10.50;9.40;;;;;;;16.00;75.14;98852.34;2619043;54;20077;-64
2021/09/26 02:45:46;;;;;;;10.43;9.38;;;;;;;15.83;75.66;98862.78;2618766;54;20037;-64
2021/09/26 02:48:20;;;;;;;10.63;8.50;;;;;;;15.80;75.43;98857.94;2618871;54;20538;-64
2021/09/26 02:50:51;;;;;;;10.77;9.07;;;;;;;15.79;75.98;98856.28;2619142;39;20445;-64
2021/09/26 02:53:22;;;;;;;10.32;9.18;;;;;;;15.78;75.70;98851.19;2619276;39;20449;-65
2021/09/26 02:55:53;;;;;;;9.80;8.85;;;;;;;15.75;76.09;98857.78;2618196;54;20042;-64
2021/09/26 02:58:23;;;;;;;10.55;8.95;;;;;;;15.76;75.75;98850.63;2618866;54;20038;-63
2021/09/26 03:00:53;;;;;;;12.75;9.50;;;;;;;15.76;75.64;98850.63;2619235;54;20038;-64
2021/09/26 03:03:28;;;;;;;11.80;9.82;;;;;;;15.72;75.93;98842.25;2619012;54;20031;-64
2021/09/26 03:05:58;;;;;;;11.75;9.93;;;;;;;15.63;76.12;98846.22;2618945;54;20030;-64
2021/09/26 03:08:28;;;;;;;11.02;9.93;;;;;;;15.61;76.34;98837.63;2619064;54;20031;-64
2021/09/26 03:11:02;;;;;;;10.85;9.40;;;;;;;15.63;76.67;98838.22;2618800;54;20042;-64
2021/09/26 03:13:31;;;;;;;;;;;;;;;15.65;76.11;98830.84;2618365;46;20034;-64
2021/09/26 03:16:01;;;;;;;10.88;9.65;;;;;;;15.65;76.06;98830.84;2618768;54;19946;-64
2021/09/26 03:18:33;;;;;;;11.05;8.43;;;;;;;15.62;76.56;98839.25;2619720;54;20027;-64
2021/09/26 03:21:03;;;;;;;11.20;10.10;;;;;;;15.65;75.75;98836.19;2620321;54;20038;-64
2021/09/26 03:23:33;;;;;;;13.55;9.95;;;;;;;15.62;76.41;98828.59;2620564;39;20102;-64
2021/09/26 03:26:02;;;;;;;12.65;9.23;;;;;;;15.54;76.64;98834.25;2620190;54;20038;-64
2021/09/26 03:28:32;;;;;;;11.45;8.95;;;;;;;15.54;76.81;98836.91;2618808;47;20038;-64
2021/09/26 03:31:02;;;;;;;10.38;9.30;;;;;;;15.56;76.42;98835.66;2619320;54;20042;-64
2021/09/26 03:33:34;;;;;;;11.93;10.50;;;;;;;15.53;76.32;98843.28;2619718;54;20022;-64
2021/09/26 03:36:03;;;;;;;10.43;9.18;;;;;;;15.45;76.43;98841.72;2620010;54;20027;-64
2021/09/26 03:38:34;;;;;;;10.05;9.05;;;;;;;15.44;76.86;98836.63;2620219;54;20537;-64
2021/09/26 03:41:03;;;;;;;15.90;10.15;;;;;;;15.43;76.48;98848.28;2619920;54;20030;-64
2021/09/26 03:43:33;;;;;;;10.50;8.52;;;;;;;15.41;76.67;98851.19;2619800;54;20034;-64
2021/09/26 03:46:03;;;;;;;11.45;10.25;;;;;;;15.43;76.80;98837.63;2619121;47;20041;-64
2021/09/26 03:48:35;;;;;;;10.25;9.18;;;;;;;15.38;76.78;98845.50;2619803;39;20481;-64
2021/09/26 03:51:05;;;;;;;10.55;9.35;;;;;;;15.35;77.26;98841.44;2619704;39;20429;-64
2021/09/26 03:53:35;;;;;;;12.88;10.65;;;;;;;15.34;76.51;98840.59;2619790;54;20022;-64
2021/09/26 03:56:05;;;;;;;11.60;9.55;;;;;;;15.31;76.72;98838.41;2619406;39;20429;-64
2021/09/26 03:58:35;;;;;;;14.90;8.80;;;;;;;15.26;76.73;98842.75;2620302;54;20042;-64
2021/09/26 04:01:05;;;;;;;10.85;9.32;;;;;;;15.28;76.60;98846.84;2619987;54;20026;-64
2021/09/26 04:03:38;;;;;;;10.90;8.90;;;;;;;15.30;76.45;98842.09;2620311;54;20038;-64
2021/09/26 04:06:10;;;;;;;10.20;9.10;;;;;;;15.25;76.76;98849.13;2620438;54;20030;-64
2021/09/26 04:08:40;;;;;;;13.70;9.43;;;;;;;15.23;76.41;98845.88;2619827;54;20034;-66
2021/09/26 04:11:10;;;;;;;10.32;9.13;;;;;;;15.18;76.96;98845.72;2619980;54;20030;-64
2021/09/26 04:13:40;;;;;;;11.38;10.05;;;;;;;15.14;76.54;98842.66;2619779;47;20045;-64
2021/09/26 04:16:10;;;;;;;10.50;9.50;;;;;;;15.11;76.94;98845.78;2620030;54;20034;-64
2021/09/26 04:18:42;;;;;;;12.32;9.65;;;;;;;15.08;76.65;98843.56;2619897;54;20030;-63
2021/09/26 04:21:12;;;;;;;11.85;8.93;;;;;;;15.04;76.90;98850.38;2619493;54;20038;-64
2021/09/26 04:23:41;;;;;;;11.57;10.25;;;;;;;15.04;77.08;98842.38;2617915;47;20035;-64
2021/09/26 04:26:11;;;;;;;10.43;9.43;;;;;;;14.97;77.26;98844.28;2618641;54;20031;-65
2021/09/26 04:28:41;;;;;;;10.63;9.60;;;;;;;14.93;77.21;98857.22;2617939;54;20074;-64
2021/09/26 04:31:11;;;;;;;10.27;9.18;;;;;;;14.94;77.01;98848.22;2617961;47;20046;-63
2021/09/26 04:33:43;;;;;;;10.75;9.68;;;;;;;14.92;77.11;98860.09;2617881;54;20077;-64
2021/09/26 04:36:13;;;;;;;12.05;10.20;;;;;;;14.87;77.63;98844.81;2618653;54;20031;-64
2021/09/26 04:38:42;;;;;;;10.82;9.73;;;;;;;14.84;77.75;98838.06;2618521;54;20564;-64
2021/09/26 04:41:12;;;;;;;11.70;9.48;;;;;;;14.81;78.09;98843.81;2618547;54;20038;-64
2021/09/26 04:43:44;;;;;;;11.25;10.15;;;;;;;14.80;77.50;98841.38;2618331;54;20038;-64
2021/09/26 04:46:14;;;;;;;11.10;9.80;;;;;;;14.78;77.87;98830.16;2618552;54;20034;-63
2021/09/26 04:48:46;;;;;;;11.60;9.35;;;;;;;14.75;78.04;98830.59;2618632;54;20026;-64
2021/09/26 04:51:16;;;;;;;14.40;11.95;;;;;;;14.75;77.87;98822.59;2618558;54;20042;-64
2021/09/26 04:53:46;;;;;;;11.32;10.13;;;;;;;14.72;78.05;98825.69;2618361;54;20102;-64
2021/09/26 04:56:15;;;;;;;12.80;9.70;;;;;;;14.71;78.07;98824.06;2617993;54;20026;-64
2021/09/26 04:58:45;;;;;;;15.18;10.15;;;;;;;14.78;77.64;98833.63;2618989;39;20441;-64
2021/09/26 05:01:15;;;;;;;13.27;9.80;;;;;;;14.84;77.46;98831.94;2618403;54;20039;-66
2021/09/26 05:03:47;;;;;;;11.50;9.48;;;;;;;14.90;77.46;98825.75;2618146;54;20022;-63
2021/09/26 05:06:20;;;;;;;12.68;10.10;;;;;;;14.90;77.01;98824.91;2617874;47;20038;-66
2021/09/26 05:08:50;;;;;;;10.90;9.07;;;;;;;14.77;77.10;98831.97;2618384;54;20037;-63
2021/09/26 05:11:19;;;;;;;10.27;8.80;;;;;;;14.67;76.64;98839.66;2618747;39;20430;-64
2021/09/26 05:13:49;;;;;;;11.77;9.10;;;;;;;14.69;76.87;98856.19;2617942;54;20030;-64
2021/09/26 05:16:19;;;;;;;10.23;8.77;;;;;;;14.75;76.67;98860.66;2618481;54;20039;-66
2021/09/26 05:18:52;;;;;;;11.38;9.70;;;;;;;14.77;76.60;98855.94;2618448;54;20033;-64
2021/09/26 05:21:21;;;;;;;11.65;9.57;;;;;;;14.77;76.28;98860.44;2618526;54;20030;-64
2021/09/26 05:23:51;;;;;;;11.90;9.40;;;;;;;14.75;76.50;98857.19;2618253;54;20586;-64
2021/09/26 05:26:21;;;;;;;12.15;9.93;;;;;;;14.72;76.47;98855.78;2618356;54;20030;-64
2021/09/26 05:28:51;;;;;;;11.25;10.07;;;;;;;14.65;76.54;98855.00;2618929;39;20391;-65
2021/09/26 05:31:20;;;;;;;13.10;10.15;;;;;;;14.55;77.13;98860.00;2618475;31;20534;-64
2021/09/26 05:33:53;;;;;;;11.43;9.75;;;;;;;14.60;77.35;98865.50;2617972;54;20022;-65
2021/09/26 05:36:23;;;;;;;14.90;10.30;;;;;;;14.66;77.61;98880.59;2618897;39;20403;-65
2021/09/26 05:38:52;;;;;;;11.93;10.38;;;;;;;14.70;77.31;98880.97;2618320;54;20038;-65
2021/09/26 05:41:22;;;;;;;11.73;10.52;;;;;;;14.70;77.43;98883.66;2618467;54;20026;-65
2021/09/26 05:43:52;;;;;;;13.68;9.38;;;;;;;14.61;77.63;98877.75;2617545;54;20030;-65
2021/09/26 05:46:22;;;;;;;10.38;9.32;;;;;;;14.62;77.14;98871.44;2618055;54;20589;-66
2021/09/26 05:48:54;;;;;;;10.88;9.10;;;;;;;14.63;76.90;98873.03;2617684;47;20026;-66
2021/09/26 05:51:24;;;;;;;12.05;9.70;;;;;;;14.68;76.64;98873.19;2618226;54;20043;-63
2021/09/26 05:53:54;;;;;;;11.57;9.45;;;;;;;14.69;76.99;98872.16;2618183;54;20034;-65
2021/09/26 05:56:24;;;;;;;10.52;9.02;;;;;;;14.79;76.99;98882.34;2618504;54;20027;-64
2021/09/26 05:58:53;;;;;;;14.90;10.10;;;;;;;14.85;76.81;98884.91;2617774;54;20022;-64
2021/09/26 06:01:23;;;;;;;13.65;11.70;;;;;;;14.90;76.37;98886.13;2617929;54;20034;-65
2021/09/26 06:03:55;;;;;;;15.10;11.70;;;;;;;14.90;76.17;98888.78;2617858;54;20558;-65
2021/09/26 06:06:25;;;;;;;15.13;10.93;;;;;;;14.91;76.29;98877.13;2618084;54;20027;-65
2021/09/26 06:08:55;;;;;;;15.68;10.75;;;;;;;14.89;76.26;98868.53;2617576;54;20130;-65
2021/09/26 06:11:25;;;;;;;12.13;9.75;;;;;;;14.89;76.39;98873.84;2618417;54;20060;-65
2021/09/26 06:13:55;;;;;;;12.27;9.70;;;;;;;14.99;76.74;98882.16;2617379;47;20041;-65
2021/09/26 06:16:24;;;;;;;14.05;11.30;;;;;;;15.13;75.97;98885.50;2618325;54;20023;-65
2021/09/26 06:18:58;;;;;;;11.43;9.38;;;;;;;15.16;76.29;98888.53;2618048;47;20030;-65
2021/09/26 06:21:28;;;;;;;13.20;11.15;;;;;;;15.23;76.28;98889.31;2618560;54;20034;-64
2021/09/26 06:23:57;;;;;;;14.00;11.70;;;;;;;15.36;75.85;98883.03;2618385;54;20038;-66
2021/09/26 06:26:27;;;;;;;13.38;10.68;;;;;;;15.44;75.79;98884.56;2618354;47;20039;-64
2021/09/26 06:28:57;;;;;;;12.77;10.73;;;;;;;15.44;75.22;98884.56;2618736;54;20034;-65
2021/09/26 06:31:27;;;;;;;15.35;12.30;;;;;;;15.45;75.33;98878.22;2619119;54;20026;-69
2021/09/26 06:33:59;;;;;;;11.02;9.30;;;;;;;15.53;75.04;98883.25;2619364;54;20046;-68
2021/09/26 06:36:29;;;;;;;11.85;10.38;;;;;;;15.58;75.19;98889.50;2618735;54;20057;-68
2021/09/26 06:38:58;;;;;;;12.13;10.20;;;;;;;15.69;75.30;98889.84;2619155;54;20262;-68
2021/09/26 06:41:29;;;;;;;11.25;10.05;;;;;;;15.81;74.44;98893.41;2619131;54;20026;-69
2021/09/26 06:43:58;;;;;;;11.32;9.88;;;;;;;15.90;74.50;98892.03;2618424;47;20557;-68
2021/09/26 06:46:29;;;;;;;14.32;12.43;;;;;;;16.02;74.42;98897.44;2618980;47;20554;-68
2021/09/26 06:49:01;;;;;;;12.88;9.18;;;;;;;16.24;74.72;98884.41;2618630;47;20030;-68
2021/09/26 06:51:32;;;;;;;10.85;9.43;;;;;;;16.37;74.07;98886.91;2619095;54;20035;-68
2021/09/26 06:54:02;;;;;;;12.73;9.80;;;;;;;16.45;74.06;98878.56;2620526;54;20038;-68
2021/09/26 06:56:32;;;;;;;11.18;9.95;;;;;;;16.55;73.97;98889.47;2622817;54;20045;-68
2021/09/26 06:59:01;;;;;;;12.32;9.55;;;;;;;16.64;73.69;98889.94;2622737;54;20035;-69
2021/09/26 07:01:32;;;;;;;10.43;9.18;;;;;;;16.79;73.91;98906.38;2623348;39;20413;-68
2021/09/26 07:04:05;;;;;;;18.20;15.05;;;;;;;16.95;73.18;98907.56;2623181;39;20425;-69
2021/09/26 07:06:35;;;;;;;12.35;10.45;;;;;;;17.01;73.46;98906.63;2622332;47;20026;-69
2021/09/26 07:09:05;;;;;;;12.18;10.55;;;;;;;17.15;73.19;98917.09;2622153;47;20078;-68
2021/09/26 07:11:36;;;;;;;11.75;9.52;;;;;;;17.26;72.79;98916.25;2622559;54;20023;-69
2021/09/26 07:14:06;;;;;;;12.07;10.10;;;;;;;17.39;72.88;98912.53;2622673;54;20030;-69
2021/09/26 07:16:35;;;;;;;12.77;9.60;;;;;;;17.55;72.25;98914.50;2622984;54;20033;-69
2021/09/26 07:19:08;;;;;;;9.90;8.57;;;;;;;17.68;72.44;98918.78;2622648;54;20038;-69
2021/09/26 07:21:37;;;;;;;12.10;10.43;;;;;;;17.75;72.31;98922.16;2622637;54;20142;-70
2021/09/26 07:24:07;;;;;;;13.18;9.23;;;;;;;17.76;72.28;98924.63;2621865;54;20049;-70
2021/09/26 07:26:37;;;;;;;11.80;9.63;;;;;;;17.75;72.09;98917.63;2622308;54;20042;-70
2021/09/26 07:29:07;;;;;;;9.50;8.10;;;;;;;17.69;72.67;98918.53;2621723;54;20034;-71
2021/09/26 07:31:37;;;;;;;12.32;9.82;;;;;;;17.72;72.71;98919.94;2622509;47;20045;-70
2021/09/26 07:34:09;;;;;;;12.52;10.02;;;;;;;17.69;73.11;98928.44;2621430;54;20033;-69
2021/09/26 07:36:40;;;;;;;13.27;11.88;;;;;;;17.67;73.09;98934.00;2622890;54;20033;-69
2021/09/26 07:39:10;;;;;;;16.27;14.07;;;;;;;17.63;72.82;98935.50;2623296;46;20549;-69
2021/09/26 07:41:42;;;;;;;15.32;11.93;;;;;;;17.63;73.52;98929.34;2623009;54;20038;-70
2021/09/26 07:44:11;;;;;;;10.88;9.23;;;;;;;17.67;73.78;98931.31;2622746;54;20038;-69
2021/09/26 07:46:44;;;;;;;11.48;8.93;;;;;;;17.80;73.75;98931.13;2622823;47;20597;-69
2021/09/26 07:49:17;;;;;;;11.95;8.05;;;;;;;17.95;73.57;98929.78;2623495;54;20039;-70
2021/09/26 07:51:47;;;;;;;9.70;7.82;;;;;;;18.03;73.41;98926.72;2622228;47;20027;-69
2021/09/26 07:54:17;;;;;;;9.85;8.32;;;;;;;18.06;72.72;98911.03;2623283;54;20032;-69
2021/09/26 07:56:47;;;;;;;10.60;9.35;;;;;;;18.11;72.85;98899.59;2623175;54;20560;-69
2021/09/26 07:59:19;;;;;;;14.95;8.80;;;;;;;18.04;72.73;98901.59;2623401;54;20027;-68
2021/09/26 08:01:49;;;;;;;12.73;9.25;;;;;;;18.06;73.09;98905.69;2622639;47;20031;-69
2021/09/26 08:04:24;;;;;;;12.35;9.30;;;;;;;18.12;73.15;98909.25;2622838;54;20646;-69
2021/09/26 08:06:54;;;;;;;12.57;9.07;;;;;;;18.18;73.14;98902.16;2622316;54;20030;-69
2021/09/26 12:34:06;;;;;;;7.40;6.70;;;;;;;19.91;77.77;98989.84;2617878;46;20030;-66
2021/09/26 12:36:41;;;;;;;9.40;8.00;;;;;;;19.82;78.05;98999.38;2619963;54;20052;-66
2021/09/26 12:39:19;;;;;;;7.07;6.38;;;;;;;19.73;78.33;98997.13;2619607;54;20030;-66
2021/09/26 12:41:52;;;;;;;8.38;6.50;;;;;;;19.61;77.96;99003.63;2619911;39;20453;-65
2021/09/26 12:44:33;;;;;;;8.68;7.22;;;;;;;19.58;78.18;98996.88;2620048;39;20410;-66
2021/09/26 12:47:12;;;;;;;13.15;11.73;;;;;;;19.66;78.45;98996.47;2619753;54;20045;-67
2021/09/26 12:49:46;;;;;;;8.00;6.75;;;;;;;19.76;77.46;98995.84;2619197;47;20026;-67
2021/09/26 12:52:19;;;;;;;9.60;8.63;;;;;;;19.83;77.60;98995.63;2619809;54;20026;-68
2021/09/26 12:54:52;;;;;;;;;;;;;;;19.76;77.73;98998.50;2619380;54;20137;-66
2021/09/26 12:57:26;;;;;;;10.82;8.05;;;;;;;19.80;77.54;99002.31;2619960;54;19938;-65
2021/09/26 13:00:15;;;;;;;8.88;7.95;;;;;;;19.83;77.60;98999.13;2619773;54;20045;-65
2021/09/26 13:02:51;;;;;;;8.63;7.72;;;;;;;19.83;77.66;98995.63;2619369;54;20150;-66
2021/09/26 13:05:31;;;;;;;10.10;7.82;;;;;;;19.88;77.34;98991.16;2619633;54;20073;-67
2021/09/26 13:08:03;;;;;;;8.77;7.97;;;;;;;19.90;77.26;98997.06;2619713;54;20034;-66
2021/09/26 13:10:34;;;;;;;9.07;8.23;;;;;;;19.88;77.34;98996.53;2619939;54;20041;-67
2021/09/26 13:13:13;;;;;;;9.13;7.80;;;;;;;19.76;77.53;99004.69;2619990;54;20573;-66
2021/09/26 13:15:44;;;;;;;10.25;9.25;;;;;;;19.67;77.58;99011.50;2620286;39;20399;-66
2021/09/26 13:18:18;;;;;;;11.15;10.00;;;;;;;19.59;78.35;99017.25;2619590;54;20149;-66
2021/09/26 13:20:52;;;;;;;11.70;9.43;;;;;;;19.55;78.43;99016.97;2619816;54;20038;-66
2021/09/26 13:23:31;;;;;;;10.57;9.48;;;;;;;19.53;78.22;99018.25;2618948;47;20550;-67
2021/09/26 13:26:06;;;;;;;10.18;9.18;;;;;;;19.54;78.32;99012.63;2619377;54;20175;-66
2021/09/26 13:28:37;;;;;;;13.30;9.88;;;;;;;19.61;78.52;99015.19;2620008;54;20038;-66
2021/09/26 13:31:19;;;;;;;10.43;9.35;;;;;;;19.67;78.48;99019.56;2619454;54;20065;-66
2021/09/26 13:33:57;;;;;;;12.18;10.73;;;;;;;19.69;78.50;99012.09;2618807;47;20023;-66
2021/09/26 13:36:41;;;;;;;11.23;10.13;;;;;;;19.68;78.33;99006.97;2619297;47;20041;-66
2021/09/26 13:39:14;;;;;;;13.68;12.07;;;;;;;19.62;78.39;99016.00;2619700;54;20030;-66
2021/09/26 13:41:47;;;;;;;10.23;9.23;;;;;;;19.55;78.60;99026.84;2620045;54;20049;-67
2021/09/26 13:44:22;;;;;;;10.73;9.65;;;;;;;19.43;78.53;99018.94;2620307;54;20038;-66
2021/09/26 13:46:53;;;;;;;12.98;11.68;;;;;;;19.42;78.19;99008.44;2618847;54;20029;-66
2021/09/26 13:49:24;;;;;;;20.38;14.88;;;;;;;19.43;78.26;99005.53;2619706;47;20034;-66
2021/09/26 13:51:56;;;;;;;15.85;13.93;;;;;;;19.47;78.34;99005.81;2619518;54;20077;-65
2021/09/26 13:54:26;;;;;;;13.20;10.93;;;;;;;19.50;78.35;99010.69;2619109;54;20023;-67
2021/09/26 13:56:56;;;;;;;12.13;10.82;;;;;;;19.55;78.25;99013.44;2620653;54;20038;-67
2021/09/26 13:59:25;;;;;;;15.18;12.52;;;;;;;19.52;78.20;99009.41;2620012;54;20042;-65
2021/09/26 14:01:55;;;;;;;13.48;11.20;;;;;;;19.45;78.37;99014.13;2621422;54;20042;-66
2021/09/26 14:04:25;;;;;;;15.05;11.40;;;;;;;19.40;78.56;99010.56;2620218;54;20034;-66
2021/09/26 14:06:57;;;;;;;13.45;10.93;;;;;;;19.42;78.24;99011.91;2620629;54;20558;-66
2021/09/26 14:09:27;;;;;;;12.32;11.02;;;;;;;19.50;77.93;99008.00;2621502;54;20042;-66
2021/09/26 14:11:57;;;;;;;13.23;11.73;;;;;;;19.55;77.67;99011.59;2620078;54;20030;-66
2021/09/26 14:14:27;;;;;;;11.95;10.60;;;;;;;19.68;77.24;98999.75;2620661;54;20038;-66
2021/09/26 14:16:57;;;;;;;14.80;12.80;;;;;;;19.90;77.46;98993.59;2620391;54;20038;-67
2021/09/26 14:19:26;;;;;;;11.30;9.98;;;;;;;20.04;76.88;98989.47;2621030;54;20027;-66
2021/09/26 14:21:59;;;;;;;11.75;10.05;;;;;;;20.16;76.68;98987.47;2619966;54;20114;-66
2021/09/26 14:24:29;;;;;;;12.57;11.07;;;;;;;20.23;76.46;98989.97;2619835;54;20074;-66
2021/09/26 14:26:59;;;;;;;12.20;11.07;;;;;;;20.26;76.10;98984.91;2618862;47;20038;-66
2021/09/26 14:29:30;;;;;;;10.48;9.48;;;;;;;20.21;75.52;98979.50;2619104;54;20039;-65
2021/09/26 14:32:09;;;;;;;12.15;9.63;;;;;;;20.15;74.88;98979.66;2620021;54;20042;-65
2021/09/26 14:34:39;;;;;;;11.55;10.35;;;;;;;20.06;75.29;98973.13;2618426;54;20029;-66
2021/09/26 14:37:11;;;;;;;14.15;11.10;;;;;;;20.26;75.55;98974.19;2620273;54;20026;-65
2021/09/26 14:39:41;;;;;;;11.85;10.75;;;;;;;20.40;75.04;98979.16;2621245;54;20065;-65
2021/09/26 14:42:11;;;;;;;11.52;10.43;;;;;;;20.47;74.82;98972.53;2620639;54;20037;-65
2021/09/26 14:44:41;;;;;;;11.20;9.45;;;;;;;20.48;74.11;98974.16;2619401;54;20045;-65
2021/09/26 14:47:11;;;;;;;13.70;11.50;;;;;;;20.51;73.80;98972.84;2620442;54;20065;-66
2021/09/26 14:49:41;;;;;;;14.30;10.38;;;;;;;20.50;73.92;98966.69;2620248;54;20038;-66
2021/09/26 14:52:13;;;;;;;11.90;10.73;;;;;;;20.45;74.01;98960.41;2620082;54;20558;-66
2021/09/26 14:54:43;;;;;;;19.10;14.67;;;;;;;20.37;73.56;98961.69;2619935;54;20037;-65
2021/09/26 14:57:13;;;;;;;13.55;12.25;;;;;;;20.32;74.19;98958.91;2620187;54;20038;-65
2021/09/26 14:59:43;;;;;;;14.80;12.77;;;;;;;20.26;73.97;98951.91;2620449;54;20039;-66
2021/09/26 15:02:13;;;;;;;13.02;11.55;;;;;;;20.25;73.96;98959.13;2619454;47;20057;-66
2021/09/26 15:04:42;;;;;;;14.18;12.70;;;;;;;20.42;73.52;98960.94;2619512;54;20031;-66
2021/09/26 15:07:14;;;;;;;13.10;11.60;;;;;;;20.67;73.91;98966.56;2620257;54;20031;-65
2021/09/26 15:09:44;;;;;;;12.63;11.32;;;;;;;20.90;72.63;98964.59;2619501;47;20027;-65
2021/09/26 15:12:15;;;;;;;13.80;12.48;;;;;;;21.02;72.31;98958.03;2620233;54;20071;-65
2021/09/26 15:14:45;;;;;;;15.32;11.32;;;;;;;21.27;72.10;98954.72;2620667;54;20039;-66
2021/09/26 15:17:15;;;;;;;11.20;10.20;;;;;;;21.35;71.01;98961.50;2620529;54;20061;-66
2021/09/26 15:19:45;;;;;;;11.63;10.43;;;;;;;21.31;70.62;98964.91;2621459;54;20061;-66
2021/09/26 15:22:17;;;;;;;12.13;10.85;;;;;;;21.37;70.67;98951.28;2620784;54;20031;-66
2021/09/26 15:24:51;;;;;;;12.13;10.77;;;;;;;21.36;70.12;98956.94;2620702;54;20057;-67
2021/09/26 15:27:20;;;;;;;12.60;10.38;;;;;;;21.41;69.23;98965.03;2620705;54;20026;-64
2021/09/26 15:29:50;;;;;;;11.50;10.38;;;;;;;21.26;69.31;98965.69;2621274;54;20034;-65
2021/09/26 15:32:21;;;;;;;11.35;10.23;;;;;;;21.05;69.30;98962.06;2620835;54;20063;-64
2021/09/26 15:34:51;;;;;;;12.93;11.52;;;;;;;20.83;69.68;98967.53;2620565;54;20026;-67
2021/09/26 15:37:23;;;;;;;12.02;10.80;;;;;;;20.69;69.84;98966.31;2621009;54;20046;-66
2021/09/26 15:39:53;;;;;;;12.97;11.47;;;;;;;20.65;69.97;98974.06;2620832;54;20042;-66
2021/09/26 15:42:23;;;;;;;13.73;12.32;;;;;;;20.69;70.32;98967.13;2621210;54;20030;-66
2021/09/26 15:44:54;;;;;;;13.35;11.73;;;;;;;20.67;70.48;98971.13;2619691;47;20027;-68
2021/09/26 15:47:26;;;;;;;13.63;12.30;;;;;;;20.69;70.52;98972.47;2620726;39;20415;-65
2021/09/26 15:49:56;;;;;;;13.38;11.95;;;;;;;20.67;70.46;98971.94;2621565;39;20437;-67
2021/09/26 15:52:29;;;;;;;13.95;12.35;;;;;;;20.69;70.25;98966.31;2620205;54;20034;-66
2021/09/26 15:54:59;;;;;;;12.93;11.50;;;;;;;20.73;70.21;98972.78;2620629;54;20026;-66
2021/09/26 15:57:32;;;;;;;13.57;12.27;;;;;;;20.68;70.50;98964.69;2620508;47;20035;-66
2021/09/26 16:00:08;;;;;;;13.32;11.73;;;;;;;20.58;70.65;98970.78;2620274;46;20034;-65
2021/09/26 16:02:38;;;;;;;;;;;;;;;20.49;70.91;98964.22;2621075;54;20042;-66
2021/09/26 16:05:11;;;;;;;15.68;12.48;;;;;;;20.45;71.38;98963.09;2620565;54;19935;-66
2021/09/26 16:07:44;;;;;;;15.68;13.35;;;;;;;20.36;71.75;98968.09;2621172;54;20026;-66